CA54 weather

33 Strip
Tracy, California, United States

Public forecast

Using degrees Fahrenheit for public forecast. Weather courtesy of forecast.io.

Closest aviation weather report (METAR) to 33 Strip

Closest report is Stockton Metropolitan Airport, 14.1 nm (26.1 km) NNE. Retrieved 2020/07/12 18:55 UTC (43 minutes ago):

KSCK 121855Z 30008KT 10SM CLR 34/08 A2988 RMK AO2 SLP118 T03440078

Closest aviation forecast (TAF) to 33 Strip

Closest forecast is Stockton Metropolitan Airport, 14.1 nm (26.1 km) NNE. Retrieved 2020/07/12 18:22 UTC (1 hour ago):

TAF KSCK 121720Z 1218/1318 32009KT P6SM SKC FM122300 29013KT P6SM SKC FM130900 32004KT P6SM SKC